Weather Data

Pearl Creek Farm: 8878 N Farm Road 75, Walnut Grove MO 65770

<== Previous Day (Sunday 06 Mar 2011) | Next Day (Tuesday 08 Mar 2011) ==>

Summary Precipitation Data For Monday 07 March 2011

ElementValueUnits
Precipitation0"
Notes(none)
SourcePearl Creek Farm

Summary Temperature Data For Monday 07 March 2011

ElementValueUnits
High Temperature46 oF
Low Temperature33 oF
Average Temperature39 oF
High Humidity85 %
Low Humidity54 %
Average Humidity70 %
SourceSpringfield-Branson National Airport (SGF)

Detail Temperature Data For Monday 07 March 2011

Date / TimeTemp (F)RH (%)Dew Pt (F)Report Date / TimeSource
2011-03-07 02:52:00 35 82 30.0 2017-12-29 17:00:26.17417 Springfield-Branson National Airport (SGF)
2011-03-07 03:52:00 34 82 29.0 2017-12-29 17:00:26.17417 Springfield-Branson National Airport (SGF)
2011-03-07 04:52:00 33 85 29.0 2017-12-29 17:00:26.17417 Springfield-Branson National Airport (SGF)
2011-03-07 05:52:00 33 85 29.0 2017-12-29 17:00:26.17417 Springfield-Branson National Airport (SGF)
2011-03-07 06:52:00 33 85 29.0 2017-12-29 17:00:26.17417 Springfield-Branson National Airport (SGF)
2011-03-07 07:52:00 33 85 29.0 2017-12-29 17:00:26.17417 Springfield-Branson National Airport (SGF)
2011-03-07 08:52:00 34 82 29.0 2017-12-29 17:00:26.17417 Springfield-Branson National Airport (SGF)
2011-03-07 09:52:00 36 76 29.0 2017-12-29 17:00:26.17417 Springfield-Branson National Airport (SGF)
2011-03-07 10:52:00 38 70 29.0 2017-12-29 17:00:26.17417 Springfield-Branson National Airport (SGF)
2011-03-07 11:52:00 41 62 29.0 2017-12-29 17:00:26.17417 Springfield-Branson National Airport (SGF)
2011-03-07 12:52:00 44 58 30.0 2017-12-29 17:00:26.17417 Springfield-Branson National Airport (SGF)
2011-03-07 14:52:00 45 56 30.0 2017-12-29 17:00:26.17417 Springfield-Branson National Airport (SGF)
2011-03-07 15:52:00 45 58 31.0 2017-12-29 17:00:26.17417 Springfield-Branson National Airport (SGF)
2011-03-07 16:52:00 46 54 30.0 2017-12-29 17:00:26.17417 Springfield-Branson National Airport (SGF)
2011-03-07 17:52:00 44 55 29.0 2017-12-29 17:00:26.17417 Springfield-Branson National Airport (SGF)
2011-03-07 18:52:00 43 58 29.0 2017-12-29 17:00:26.17417 Springfield-Branson National Airport (SGF)
2011-03-07 19:52:00 43 63 31.0 2017-12-29 17:00:26.17417 Springfield-Branson National Airport (SGF)
2011-03-07 20:52:00 42 62 30.0 2017-12-29 17:00:26.17417 Springfield-Branson National Airport (SGF)
2011-03-07 21:52:00 41 67 31.0 2017-12-29 17:00:26.17417 Springfield-Branson National Airport (SGF)
2011-03-07 22:52:00 40 77 33.0 2017-12-29 17:00:26.17417 Springfield-Branson National Airport (SGF)
2011-03-07 23:52:00 40 79 34.0 2017-12-29 17:00:26.17417 Springfield-Branson National Airport (SGF)
2011-03-07 00:52:00 37 73 29.0 2017-12-29 17:00:26.17417 Springfield-Branson National Airport (SGF)
2011-03-07 01:52:00 36 79 30.0 2017-12-29 17:00:26.17417 Springfield-Branson National Airport (SGF)
2011-03-07 13:52:00 44 55 29.0 2017-12-29 17:00:26.17417 Springfield-Branson National Airport (SGF)

A total of 24 rows are displayed.